Time;durP1;ratioP1;P1;durP2;ratioP2;P2;SDS_P1;SDS_P2;PMS_P1;PMS_P2;Temp;Humidity;BMP_temperature;BMP_pressure;BME280_temperature;BME280_humidity;BME280_pressure;Samples;Min_cycle;Max_cycle;Signal;HPM_P1;HPM_P2
2022/11/29 00:00:36;;;;;;;169.98;26.67;;;;;;;;;;6224834;22;20095;-89
2022/11/29 00:03:02;;;;;;;155.90;26.08;;;;;;;;;;6250119;22;20020;-89
2022/11/29 00:05:28;;;;;;;158.20;25.10;;;;;;;;;;6250189;22;20018;-89
2022/11/29 00:07:54;;;;;;;144.82;24.55;;;;;;;;;;6250087;22;20170;-89
2022/11/29 00:10:20;;;;;;;194.40;30.42;;;;;;;;;;6250016;22;20019;-89
2022/11/29 00:12:47;;;;;;;154.40;25.27;;;;;;;;;;6251272;22;20027;-89
2022/11/29 00:15:13;;;;;;;240.65;32.47;;;;;;;;;;6250393;22;20429;-89
2022/11/29 00:17:39;;;;;;;91.82;22.55;;;;;;;;;;6224696;22;20475;-89
2022/11/29 00:20:09;;;;;;;160.18;26.23;;;;;;;;;;6251478;22;20027;-89
2022/11/29 00:22:35;;;;;;;164.48;27.55;;;;;;;;;;6224696;22;20053;-88
2022/11/29 00:25:01;;;;;;;138.68;26.13;;;;;;;;;;6224713;22;20016;-88
2022/11/29 00:27:27;;;;;;;133.15;23.88;;;;;;;;;;6249880;22;20051;-88
2022/11/29 00:29:53;;;;;;;59.85;18.48;;;;;;;;;;6250080;22;20520;-88
2022/11/29 00:32:19;;;;;;;152.07;27.42;;;;;;;;;;6249785;22;20055;-88
2022/11/29 00:34:45;;;;;;;186.85;26.85;;;;;;;;;;6224818;22;20019;-89
2022/11/29 00:37:11;;;;;;;114.22;25.08;;;;;;;;;;6224510;22;20062;-88
2022/11/29 00:39:37;;;;;;;235.75;31.10;;;;;;;;;;6224451;22;20445;-88
2022/11/29 00:42:03;;;;;;;138.30;25.52;;;;;;;;;;6249343;22;20399;-88
2022/11/29 00:44:29;;;;;;;110.32;26.02;;;;;;;;;;6249669;22;20023;-88
2022/11/29 00:46:55;;;;;;;132.50;26.38;;;;;;;;;;6249871;22;20012;-88
2022/11/29 00:49:21;;;;;;;77.03;19.98;;;;;;;;;;6250261;22;20411;-90
2022/11/29 00:51:47;;;;;;;156.45;25.30;;;;;;;;;;6250175;22;20073;-92
2022/11/29 00:54:14;;;;;;;140.98;24.95;;;;;;;;;;6250372;22;20016;-91
2022/11/29 00:56:40;;;;;;;121.78;22.83;;;;;;;;;;6225068;22;20352;-96
2022/11/29 00:59:06;;;;;;;177.95;31.45;;;;;;;;;;6250849;22;20015;-93
2022/11/29 01:01:32;;;;;;;214.65;29.80;;;;;;;;;;6225005;22;20016;-88
2022/11/29 01:04:00;;;;;;;174.23;29.02;;;;;;;;;;6226308;22;20085;-90
2022/11/29 01:06:26;;;;;;;168.55;28.67;;;;;;;;;;6250174;22;20058;-88
2022/11/29 01:08:52;;;;;;;96.53;21.33;;;;;;;;;;6250368;22;20026;-91
2022/11/29 01:11:23;;;;;;;156.07;28.15;;;;;;;;;;6250280;22;20019;-93
2022/11/29 01:13:50;;;;;;;42.65;16.80;;;;;;;;;;6250357;22;20027;-93
2022/11/29 01:16:16;;;;;;;57.38;17.60;;;;;;;;;;6225082;22;20449;-93
2022/11/29 01:18:43;;;;;;;60.38;19.63;;;;;;;;;;6250484;22;20016;-95
2022/11/29 01:21:10;;;;;;;68.93;19.23;;;;;;;;;;6224991;22;20382;-91
2022/11/29 01:23:37;;;;;;;73.03;17.45;;;;;;;;;;6225679;22;20102;-95
2022/11/29 01:26:04;;;;;;;31.10;14.27;;;;;;;;;;6249522;22;20019;-89
2022/11/29 01:28:30;;;;;;;47.75;17.20;;;;;;;;;;6249227;22;20453;-88
2022/11/29 01:30:57;;;;;;;41.88;16.70;;;;;;;;;;6249902;22;20345;-89
2022/11/29 01:33:23;;;;;;;38.85;15.55;;;;;;;;;;6249500;22;20460;-89
2022/11/29 01:35:50;;;;;;;50.72;15.55;;;;;;;;;;6249300;22;20015;-89
2022/11/29 01:38:17;;;;;;;66.85;18.85;;;;;;;;;;6249406;22;20098;-88
2022/11/29 01:40:43;;;;;;;47.95;16.15;;;;;;;;;;6249379;22;20065;-88
2022/11/29 01:43:14;;;;;;;50.03;17.05;;;;;;;;;;6224170;22;20417;-88
2022/11/29 01:45:40;;;;;;;108.43;20.95;;;;;;;;;;6223950;22;20008;-88
2022/11/29 01:48:06;;;;;;;58.17;16.88;;;;;;;;;;6249179;22;20020;-88
2022/11/29 01:50:32;;;;;;;36.72;15.70;;;;;;;;;;6224049;22;20022;-88
2022/11/29 01:52:59;;;;;;;50.38;17.70;;;;;;;;;;6249562;22;20081;-88
2022/11/29 01:55:25;;;;;;;45.65;16.90;;;;;;;;;;6226018;22;20020;-88
2022/11/29 01:57:51;;;;;;;77.07;19.77;;;;;;;;;;6227363;22;20012;-88
2022/11/29 02:00:18;;;;;;;63.10;17.67;;;;;;;;;;6251283;22;20050;-89
2022/11/29 02:02:50;;;;;;;53.22;17.42;;;;;;;;;;6251258;22;20016;-88
2022/11/29 02:05:17;;;;;;;67.18;18.00;;;;;;;;;;6251939;22;20016;-88
2022/11/29 02:07:45;;;;;;;96.38;21.75;;;;;;;;;;6226461;22;20103;-88
2022/11/29 02:10:11;;;;;;;64.78;18.25;;;;;;;;;;6251070;22;20015;-89
2022/11/29 02:12:43;;;;;;;43.30;16.98;;;;;;;;;;6226715;22;20018;-89
2022/11/29 02:15:18;;;;;;;70.65;19.20;;;;;;;;;;6225573;22;20019;-89
2022/11/29 02:17:56;;;;;;;43.17;17.15;;;;;;;;;;6250979;22;20015;-88
2022/11/29 02:20:22;;;;;;;69.45;19.13;;;;;;;;;;6251146;22;20052;-89
2022/11/29 02:22:57;;;;;;;46.63;17.05;;;;;;;;;;6251161;22;20034;-89
2022/11/29 02:25:32;;;;;;;42.42;16.45;;;;;;;;;;6250970;22;20020;-88
2022/11/29 02:28:29;;;;;;;54.33;17.98;;;;;;;;;;6250911;22;20345;-89
2022/11/29 02:31:03;;;;;;;50.28;17.05;;;;;;;;;;6225645;22;20453;-88
2022/11/29 02:33:38;;;;;;;77.95;19.15;;;;;;;;;;6278340;22;20016;-88
2022/11/29 02:36:11;;;;;;;47.65;17.52;;;;;;;;;;6251040;22;20131;-88
2022/11/29 02:39:01;;;;;;;41.88;17.48;;;;;;;;;;6279024;22;20023;-88
2022/11/29 02:41:51;;;;;;;55.78;17.60;;;;;;;;;;6250832;22;20041;-89
2022/11/29 02:44:17;;;;;;;68.90;16.92;;;;;;;;;;6076770;23;20050;-89
2022/11/29 02:46:55;;;;;;;72.32;19.25;;;;;;;;;;6100626;23;20025;-89
2022/11/29 02:49:21;;;;;;;104.28;22.33;;;;;;;;;;6100735;23;20029;-88
2022/11/29 02:51:53;;;;;;;68.50;18.48;;;;;;;;;;6100692;23;20018;-88
2022/11/29 02:54:25;;;;;;;85.13;17.90;;;;;;;;;;6076598;23;20034;-88
2022/11/29 02:57:00;;;;;;;60.70;17.08;;;;;;;;;;6076536;23;20403;-89
2022/11/29 02:59:32;;;;;;;45.85;16.23;;;;;;;;;;6100643;23;20057;-89
2022/11/29 03:02:16;;;;;;;54.53;19.17;;;;;;;;;;6076667;23;20022;-89
2022/11/29 03:04:47;;;;;;;47.17;15.90;;;;;;;;;;6075887;23;20071;-89
2022/11/29 03:07:13;;;;;;;68.82;19.17;;;;;;;;;;6100352;23;20025;-89
2022/11/29 03:09:42;;;;;;;131.02;20.30;;;;;;;;;;6076488;23;20044;-89
2022/11/29 03:12:14;;;;;;;116.70;19.33;;;;;;;;;;6100316;23;20149;-89
2022/11/29 03:14:49;;;;;;;50.42;15.80;;;;;;;;;;6100221;23;20163;-88
2022/11/29 03:17:25;;;;;;;48.20;15.30;;;;;;;;;;6100197;23;20098;-89
2022/11/29 03:19:51;;;;;;;72.65;17.92;;;;;;;;;;6100597;23;20022;-89
2022/11/29 03:22:26;;;;;;;116.72;19.70;;;;;;;;;;6239824;22;20019;-89
2022/11/29 03:25:04;;;;;;;71.03;15.73;;;;;;;;;;6251367;22;20016;-89
2022/11/29 03:27:35;;;;;;;55.35;13.20;;;;;;;;;;6277631;22;20019;-89
2022/11/29 03:30:04;;;;;;;80.88;18.45;;;;;;;;;;6225071;22;20015;-88
2022/11/29 03:32:49;;;;;;;110.40;19.98;;;;;;;;;;6225182;22;20012;-89
2022/11/29 03:35:18;;;;;;;109.07;17.95;;;;;;;;;;6250687;22;20062;-89
2022/11/29 03:38:12;;;;;;;53.35;15.10;;;7.00;99.90;;;;;;6250390;22;20020;-89
2022/11/29 03:40:41;;;;;;;47.33;15.02;;;;;;;;;;6225077;22;20077;-88
2022/11/29 03:43:17;;;;;;;51.92;16.08;;;;;;;;;;6226380;22;20012;-89
2022/11/29 03:45:48;;;;;;;72.32;17.20;;;;;;;;;;6225273;22;20020;-89
2022/11/29 03:48:21;;;;;;;66.68;17.33;;;;;;;;;;6250348;22;20011;-88
2022/11/29 03:50:53;;;;;;;37.13;14.75;;;;;;;;;;6251598;22;20095;-88
2022/11/29 03:53:19;;;;;;;61.03;15.52;;;;;;;;;;6224882;22;20023;-88
2022/11/29 03:55:45;;;;;;;75.28;15.63;;;;;;;;;;6225630;22;20384;-88
2022/11/29 03:58:30;;;;;;;69.00;16.90;;;;;;;;;;6251900;22;20020;-89
2022/11/29 04:01:05;;;;;;;99.53;18.70;;;;;;;;;;6226557;22;20441;-87
2022/11/29 04:03:38;;;;;;;146.95;21.13;;;;;;;;;;6252353;22;20456;-89
2022/11/29 04:06:10;;;;;;;157.75;19.70;;;;;;;;;;6225280;22;20016;-89
2022/11/29 04:08:45;;;;;;;80.45;15.93;;;;;;;;;;6225371;22;20098;-89
2022/11/29 04:11:17;;;;;;;119.00;19.25;;;;;;;;;;6225284;22;20011;-89
2022/11/29 04:14:05;;;;;;;96.55;18.08;;;6.80;99.90;;;;;;6250547;22;20016;-89
2022/11/29 04:16:37;;;;;;;129.25;17.85;;;;;;;;;;6224990;22;20019;-89
2022/11/29 04:19:13;;;;;;;56.88;14.60;;;;;;;;;;6253294;22;20457;-89
2022/11/29 04:21:47;;;;;;;144.23;20.25;;;;;;;;;;6228892;22;20012;-89
2022/11/29 04:24:13;;;;;;;81.35;16.33;;;;;;;;;;6225369;22;20072;-89
2022/11/29 04:27:13;;;;;;;81.53;16.85;;;6.90;99.90;;;;;;6250518;22;20055;-89
2022/11/29 04:29:47;;;;;;;71.60;15.32;;;;;;;;;;6250648;22;20027;-89
2022/11/29 04:32:13;;;;;;;138.68;20.33;;;;;;;;;;6225387;22;20016;-89
2022/11/29 04:34:42;;;;;;;112.22;15.93;;;;;;;;;;6226742;22;20024;-89
2022/11/29 04:37:08;;;;;;;122.13;19.00;;;;;;;;;;6231948;22;20015;-94
2022/11/29 04:39:44;;;;;;;48.85;13.35;;;;;;;;;;6233070;22;20016;-91
2022/11/29 04:42:16;;;;;;;68.07;14.60;;;;;;;;;;6226349;22;20520;-88
2022/11/29 04:44:48;;;;;;;51.92;13.63;;;;;;;;;;6226114;22;20043;-89
2022/11/29 04:47:32;;;;;;;67.32;14.60;;;6.60;99.90;;;;;;6226425;22;20023;-89
2022/11/29 04:50:34;;;;;;;90.70;14.60;;;;;;;;;;6229105;22;20015;-93
2022/11/29 04:53:10;;;;;;;66.03;15.27;;;;;;;;;;6082053;23;20028;-92
2022/11/29 04:55:41;;;;;;;23.25;10.77;;;;;;;;;;6076985;23;20387;-89
2022/11/29 04:58:26;;;;;;;24.13;10.32;;;;;;;;;;6101858;23;20049;-89
2022/11/29 05:01:07;;;;;;;29.13;10.82;;;;;;;;;;6099889;23;20018;-89
2022/11/29 05:03:42;;;;;;;59.78;12.65;;;;;;;;;;6075883;23;20014;-89
2022/11/29 05:06:08;;;;;;;26.63;10.55;;;;;;;;;;6075997;23;20495;-89
2022/11/29 05:08:37;;;;;;;31.50;11.98;;;;;;;;;;6100972;23;20018;-89
2022/11/29 05:11:06;;;;;;;23.98;10.75;;;;;;;;;;6076002;23;20018;-89
2022/11/29 05:13:50;;;;;;;26.98;12.10;;;;;;;;;;6099654;23;20526;-89
2022/11/29 05:16:31;;;;;;;25.33;11.68;;;;;;;;;;6100220;23;20026;-89
2022/11/29 05:18:57;;;;;;;23.67;11.63;;;;;;;;;;6099439;23;20101;-88
2022/11/29 05:21:43;;;;;;;17.67;10.93;;;;;;;;;;6075804;23;20061;-88
2022/11/29 05:24:28;;;;;;;21.42;10.85;;;;;;;;;;5962565;23;20023;-88
2022/11/29 05:27:02;;;;;;;;;;;6.50;99.90;;;;;;6041058;23;20053;-89
2022/11/29 05:30:06;;;;;;;18.38;9.85;;;6.40;99.90;;;;;;6101220;23;19949;-88
2022/11/29 05:32:47;;;;;;;20.80;10.37;;;;;;;;;;6101564;23;20025;-88
2022/11/29 05:35:13;;;;;;;21.23;10.48;;;;;;;;;;6125818;23;20257;-88
2022/11/29 05:37:48;;;;;;;17.38;9.50;;;;;;;;;;6125778;23;20018;-88
2022/11/29 05:40:37;;;;;;;32.40;11.35;;;;;;;;;;6101391;23;20025;-88
2022/11/29 05:43:22;;;;;;;30.65;11.18;;;;;;;;;;6125939;23;20018;-89
2022/11/29 05:46:02;;;;;;;25.38;10.40;;;;;;;;;;6078473;23;20014;-88
2022/11/29 05:48:44;;;;;;;30.75;10.35;;;;;;;;;;6101329;23;20018;-88
2022/11/29 05:51:16;;;;;;;20.60;9.70;;;;;;;;;;6077464;23;20029;-89
2022/11/29 05:53:47;;;;;;;26.65;11.50;;;;;;;;;;6101638;23;20053;-89
2022/11/29 05:56:23;;;;;;;22.52;11.02;;;;;;;;;;6077928;23;20018;-88
2022/11/29 05:59:00;;;;;;;31.13;13.05;;;;;;;;;;6078494;23;20320;-89
2022/11/29 06:01:52;;;;;;;51.08;13.65;;;;;;;;;;6165300;22;20444;-89
2022/11/29 06:04:27;;;;;;;25.75;12.68;;;;;;;;;;6227748;22;20022;-88
2022/11/29 06:07:09;;;;;;;33.45;11.90;;;;;;;;;;6227855;22;20102;-89
2022/11/29 06:09:39;;;;;;;22.77;11.48;;;;;;;;;;6226461;22;20391;-88
2022/11/29 06:12:13;;;;;;;36.30;12.93;;;;;;;;;;6227212;22;20016;-88
2022/11/29 06:14:58;;;;;;;32.70;12.57;;;6.20;99.90;;;;;;6226163;22;20322;-88
2022/11/29 06:17:55;;;;;;;26.48;12.07;;;6.30;99.90;;;;;;6226439;22;20019;-87
2022/11/29 06:20:39;;;;;;;29.50;12.55;;;;;;;;;;6251721;22;20020;-89
2022/11/29 06:23:32;;;;;;;25.70;12.20;;;;;;;;;;6252894;22;20016;-88
2022/11/29 06:25:58;;;;;;;23.83;12.52;;;;;;;;;;6217587;22;20016;-88
2022/11/29 06:28:24;;;;;;;22.55;11.73;;;;;;;;;;6226985;22;20026;-88
2022/11/29 06:31:15;;;;;;;19.73;10.52;;;;;;;;;;6227053;22;20023;-88
2022/11/29 06:33:45;;;;;;;20.08;12.10;;;;;;;;;;6253015;22;20094;-88
2022/11/29 06:36:15;;;;;;;23.55;10.90;;;;;;;;;;6226035;22;20019;-88
2022/11/29 06:38:41;;;;;;;30.50;12.57;;;;;;;;;;6226251;22;20019;-88
2022/11/29 06:41:12;;;;;;;23.98;12.65;;;;;;;;;;6252734;22;20069;-88
2022/11/29 06:43:39;;;;;;;25.73;11.73;;;;;;;;;;6226009;22;20054;-88
2022/11/29 06:46:20;;;;;;;22.20;12.40;;;;;;;;;;6227637;22;20020;-88
2022/11/29 06:48:52;;;;;;;25.77;12.13;;;;;;;;;;6226461;22;20016;-88
2022/11/29 06:51:18;;;;;;;28.58;13.52;;;;;;;;;;6251271;22;20012;-88
2022/11/29 06:53:59;;;;;;;24.70;11.18;;;;;;;;;;6227376;22;20441;-88
2022/11/29 06:56:31;;;;;;;28.55;10.40;;;;;;;;;;6225794;22;20023;-88
2022/11/29 06:59:02;;;;;;;27.95;11.63;;;;;;;;;;6227324;22;20437;-88
2022/11/29 07:01:40;;;;;;;35.53;12.18;;;;;;;;;;6225801;22;20078;-88
2022/11/29 07:04:16;;;;;;;28.60;11.73;;;;;;;;;;6227389;22;20015;-88
2022/11/29 07:06:42;;;;;;;23.63;11.35;;;;;;;;;;6225774;22;20023;-88
2022/11/29 07:09:12;;;;;;;32.25;12.52;;;;;;;;;;6250434;22;20072;-88
2022/11/29 07:11:38;;;;;;;23.85;10.52;;;;;;;;;;6277991;22;20058;-88
2022/11/29 07:14:04;;;;;;;26.20;11.77;;;;;;;;;;6267340;22;20020;-94
2022/11/29 07:16:38;;;;;;;30.80;12.43;;;;;;;;;;6271397;22;20020;-95
2022/11/29 07:19:17;;;;;;;25.45;11.38;;;;;;;;;;6246972;22;20016;-93
2022/11/29 07:21:58;;;;;;;22.70;11.50;;;;;;;;;;6272684;22;20070;-94
2022/11/29 07:24:39;;;;;;;27.67;12.15;;;;;;;;;;6246944;22;20054;-92
2022/11/29 07:27:26;;;;;;;26.08;11.43;;;;;;;;;;6225375;22;20113;-88
2022/11/29 07:30:40;;;;;;;32.00;10.65;;;6.60;99.90;;;;;;6249782;22;20051;-88
2022/11/29 07:33:24;;;;;;;19.98;10.50;;;;;;;;;;6076158;23;20351;-88
2022/11/29 07:35:51;;;;;;;29.55;11.20;;;;;;;;;;6076187;23;20025;-88
2022/11/29 07:38:17;;;;;;;23.73;11.32;;;;;;;;;;6077127;23;20348;-88
2022/11/29 07:40:49;;;;;;;20.05;10.48;;;;;;;;;;6100113;23;20463;-89
2022/11/29 07:43:21;;;;;;;24.23;11.05;;;;;;;;;;6077152;23;20040;-88
2022/11/29 07:45:49;;;;;;;28.02;11.70;;;;;;;;;;6076113;23;20020;-88
2022/11/29 07:48:16;;;;;;;21.65;11.45;;;;;;;;;;6075829;23;20021;-89
2022/11/29 07:50:42;;;;;;;18.30;11.18;;;;;;;;;;6100011;23;20046;-89
2022/11/29 07:53:15;;;;;;;25.23;11.27;;;;;;;;;;6099869;23;20068;-88
2022/11/29 07:55:42;;;;;;;20.83;10.48;;;;;;;;;;6100054;23;20018;-88
2022/11/29 07:58:11;;;;;;;30.90;11.18;;;;;;;;;;6100137;23;20029;-89
2022/11/29 08:00:37;;;;;;;23.70;10.18;;;;;;;;;;6076370;23;20065;-89
2022/11/29 08:03:04;;;;;;;22.52;11.05;;;;;;;;;;6076149;23;20018;-89
2022/11/29 08:05:30;;;;;;;27.27;12.85;;;;;;;;;;6075928;23;20077;-88
2022/11/29 08:07:56;;;;;;;31.50;12.48;;;;;;;;;;6075938;23;20018;-89
2022/11/29 08:10:22;;;;;;;24.90;9.93;;;;;;;;;;6231184;22;20341;-88
2022/11/29 08:12:49;;;;;;;21.38;10.48;;;;;;;;;;6224786;22;20023;-89
2022/11/29 08:15:16;;;;;;;19.73;9.88;;;;;;;;;;6249719;22;20019;-89
2022/11/29 08:17:42;;;;;;;22.30;9.77;;;;;;;;;;6224393;22;20063;-89
2022/11/29 08:20:10;;;;;;;24.65;10.27;;;;;;;;;;6249942;22;20338;-88
2022/11/29 08:22:36;;;;;;;23.50;9.50;;;;;;;;;;6224372;22;20015;-89
2022/11/29 08:25:03;;;;;;;26.80;10.80;;;;;;;;;;6224622;22;20016;-89
2022/11/29 08:27:30;;;;;;;20.98;10.23;;;;;;;;;;6225281;22;20047;-89
2022/11/29 08:29:56;;;;;;;19.70;9.95;;;;;;;;;;6249689;22;20404;-88
2022/11/29 08:32:22;;;;;;;21.67;10.43;;;;;;;;;;6224584;22;20066;-89
2022/11/29 08:34:48;;;;;;;25.73;9.98;;;;;;;;;;6224492;22;20026;-88
2022/11/29 08:37:14;;;;;;;15.05;9.23;;;;;;;;;;6224526;22;20015;-89
2022/11/29 08:39:40;;;;;;;19.05;8.65;;;;;;;;;;6251076;22;20058;-89
2022/11/29 08:42:07;;;;;;;20.42;10.38;;;;;;;;;;6224450;22;20016;-89
2022/11/29 08:44:33;;;;;;;18.77;9.07;;;;;;;;;;6224353;22;20051;-89
2022/11/29 08:50:01;;;;;;;37.88;10.55;;;;;;;;;;6249455;22;20020;-89
2022/11/29 08:55:13;;;;;;;26.83;9.98;;;;;;;;;;6249440;22;20016;-89
2022/11/29 08:57:39;;;;;;;22.08;9.75;;;;;;;;;;6224432;22;20031;-89
2022/11/29 09:00:06;;;;;;;31.08;11.73;;;;;;;;;;6224609;22;20011;-88
2022/11/29 09:02:32;;;;;;;21.52;8.95;;;;;;;;;;6223929;22;20020;-88
2022/11/29 09:04:58;;;;;;;19.45;8.98;;;;;;;;;;6249545;22;20098;-89
2022/11/29 09:07:24;;;;;;;23.95;8.93;;;;;;;;;;6224243;22;20012;-89
2022/11/29 09:09:50;;;;;;;28.23;9.60;;;;;;;;;;6224252;22;20022;-89
2022/11/29 09:12:16;;;;;;;23.15;9.68;;;;;;;;;;6224185;22;20012;-89
2022/11/29 09:14:42;;;;;;;25.95;9.75;;;;;;;;;;6249298;22;20024;-89
2022/11/29 09:17:09;;;;;;;19.25;10.20;;;;;;;;;;6224166;22;20520;-89
2022/11/29 09:19:35;;;;;;;28.23;8.88;;;;;;;;;;6224137;22;20053;-89
2022/11/29 09:22:02;;;;;;;22.52;9.02;;;;;;;;;;6249666;22;20023;-89
2022/11/29 09:24:28;;;;;;;18.30;8.52;;;;;;;;;;6224198;22;20011;-88
2022/11/29 09:26:54;;;;;;;21.88;9.50;;;;;;;;;;6224136;22;20020;-89
2022/11/29 09:29:20;;;;;;;23.80;7.75;;;;;;;;;;6224092;22;20053;-88
2022/11/29 09:31:46;;;;;;;24.05;8.02;;;;;;;;;;6224157;22;20012;-89
2022/11/29 09:34:17;;;;;;;21.60;8.30;;;;;;;;;;6224103;22;20019;-88
2022/11/29 09:36:43;;;;;;;17.77;8.18;;;;;;;;;;6225367;22;20487;-88
2022/11/29 09:39:11;;;;;;;21.95;10.07;;;;;;;;;;6224919;22;20024;-88
2022/11/29 09:41:40;;;;;;;22.10;8.63;;;;;;;;;;6223964;22;20016;-89
2022/11/29 09:44:16;;;;;;;20.35;7.65;;;;;;;;;;6224074;22;20019;-89
2022/11/29 09:46:55;;;;;;;15.07;7.43;;;;;;;;;;6223714;22;20023;-89
2022/11/29 09:49:27;;;;;;;18.75;8.43;;;;;;;;;;6223998;22;20054;-89
2022/11/29 09:51:59;;;;;;;24.95;8.68;;;;;;;;;;6224242;22;20012;-89
2022/11/29 09:54:41;;;;;;;27.85;8.70;;;;;;;;;;6250714;22;20015;-88
2022/11/29 09:57:07;;;;;;;22.83;9.38;;;;;;;;;;6223997;22;20022;-89
2022/11/29 09:59:36;;;;;;;23.83;8.57;;;;;;;;;;6224162;22;20022;-88
2022/11/29 10:02:05;;;;;;;16.83;7.97;;;;;;;;;;6224044;22;20020;-89
2022/11/29 10:04:41;;;;;;;20.13;7.22;;;;;;;;;;6224092;22;20016;-89
2022/11/29 10:07:17;;;;;;;15.63;7.70;;;;;;;;;;6223985;22;20016;-89
2022/11/29 10:09:50;;;;;;;29.58;8.48;;;;;;;;;;6223979;22;20015;-89
2022/11/29 10:12:25;;;;;;;19.67;7.88;;;;;;;;;;6249235;22;20449;-89
2022/11/29 10:14:58;;;;;;;31.27;9.10;;;;;;;;;;6250404;22;20016;-88
2022/11/29 10:17:29;;;;;;;23.80;8.20;;;;;;;;;;6250940;22;20015;-90
2022/11/29 10:19:58;;;;;;;23.63;8.82;;;;;;;;;;6251286;22;20445;-89
2022/11/29 10:22:44;;;;;;;24.90;8.20;;;;;;;;;;6225600;22;20070;-88
2022/11/29 10:25:17;;;;;;;20.55;8.57;;;;;;;;;;6225804;22;20066;-89
2022/11/29 10:27:43;;;;;;;26.00;7.93;;;;;;;;;;6225612;22;20034;-89
2022/11/29 10:30:13;;;;;;;20.92;8.07;;;;;;;;;;6251016;22;20079;-89
2022/11/29 10:32:40;;;;;;;22.38;8.77;;;;;;;;;;6225619;22;20117;-89
2022/11/29 10:35:14;;;;;;;21.00;8.52;;;;;;;;;;6250974;22;20019;-89
2022/11/29 10:37:40;;;;;;;18.08;8.20;;;;;;;;;;6225639;22;20016;-89
2022/11/29 10:40:11;;;;;;;28.30;9.63;;;;;;;;;;6225764;22;20066;-89
2022/11/29 10:43:10;;;;;;;28.33;8.65;;;;;;;;;;6226411;22;20023;-88
2022/11/29 10:45:54;;;;;;;25.23;9.02;;;;;;;;;;6248496;22;20022;-88
2022/11/29 10:48:24;;;;;;;22.10;8.52;;;;;;;;;;6277983;22;20044;-89
2022/11/29 10:50:51;;;;;;;27.90;10.13;;;;;;;;;;6277841;22;20450;-88
2022/11/29 10:53:24;;;;;;;21.52;9.52;;;;;;;;;;6277133;22;20449;-88
2022/11/29 10:55:50;;;;;;;17.85;9.60;;;;;;;;;;6233928;22;20069;-87
2022/11/29 10:58:24;;;;;;;17.67;10.25;;;;;;;;;;6265258;22;20409;-87
2022/11/29 11:00:59;;;;;;;20.10;11.65;;;;;;;;;;6233851;22;20077;-87
2022/11/29 11:03:30;;;;;;;27.67;11.93;;;;;;;;;;6231361;22;20486;-87
2022/11/29 11:06:05;;;;;;;20.05;10.93;;;;;;;;;;6227249;22;20035;-87
2022/11/29 11:08:35;;;;;;;20.83;11.35;;;;;;;;;;6279864;22;20098;-87
2022/11/29 11:11:01;;;;;;;20.65;10.73;;;;;;;;;;6240384;22;20027;-87
2022/11/29 11:13:29;;;;;;;16.80;10.93;;;;;;;;;;6264120;22;20026;-89
2022/11/29 11:15:57;;;;;;;19.50;10.68;;;;;;;;;;6237757;22;20395;-87
2022/11/29 11:18:25;;;;;;;19.45;11.90;;;;;;;;;;6232616;22;20046;-87
2022/11/29 11:21:11;;;;;;;22.60;12.13;;;;;;;;;;6160206;23;20021;-88
2022/11/29 11:23:51;;;;;;;26.38;12.80;;;;;;;;;;6137863;23;20021;-87
2022/11/29 11:26:17;;;;;;;18.35;10.93;;;;;;;;;;6162228;23;20049;-87
2022/11/29 11:29:02;;;;;;;23.67;11.90;;;;;;;;;;6154845;23;20021;-87
2022/11/29 11:31:36;;;;;;;19.30;12.07;;;;;;;;;;6106980;23;20014;-87
2022/11/29 11:34:35;;;;;;;17.15;11.18;;;;;;;;;;6134562;23;20021;-87
2022/11/29 11:37:21;;;;;;;18.88;10.23;;;9.60;99.90;;;;;;6043575;23;20023;-87
2022/11/29 11:39:52;;;;;;;16.33;9.80;;;;;;;;;;6067963;23;20026;-87
2022/11/29 11:42:39;;;;;;;19.40;9.82;;;;;;;;;;6043483;23;20021;-87
2022/11/29 11:45:11;;;;;;;19.15;10.27;;;;;;;;;;6046199;23;20065;-87
2022/11/29 11:47:47;;;;;;;15.15;9.45;;;;;;;;;;6072457;23;20057;-87
2022/11/29 11:50:13;;;;;;;15.57;10.70;;;;;;;;;;6072246;23;20445;-87
2022/11/29 11:52:39;;;;;;;18.90;10.13;;;;;;;;;;6072370;23;20026;-87
2022/11/29 11:55:24;;;;;;;14.05;9.35;;;;;;;;;;6046853;23;20027;-87
2022/11/29 11:57:59;;;;;;;17.15;8.63;;;;;;;;;;6096159;23;20053;-87
2022/11/29 12:00:42;;;;;;;12.63;8.07;;;;;;;;;;6131029;23;20123;-88
2022/11/29 12:03:23;;;;;;;12.47;7.77;;;;;;;;;;6129281;23;20086;-89
2022/11/29 12:05:51;;;;;;;14.25;9.20;;;;;;;;;;6129250;23;20018;-88
2022/11/29 12:08:18;;;;;;;14.48;9.07;;;;;;;;;;6129507;23;20018;-88
2022/11/29 12:10:44;;;;;;;16.73;7.97;;;;;;;;;;6129232;23;20076;-89
2022/11/29 12:13:20;;;;;;;12.52;8.60;;;;;;;;;;6171647;22;20019;-89
2022/11/29 12:15:48;;;;;;;10.90;7.22;;;;;;;;;;6250246;22;20012;-88
2022/11/29 12:18:19;;;;;;;10.27;7.63;;;;;;;;;;6224815;22;20023;-88
2022/11/29 12:20:50;;;;;;;12.38;7.70;;;;;;;;;;6250007;22;20047;-89
2022/11/29 12:23:19;;;;;;;11.10;7.22;;;;;;;;;;6224463;22;20092;-88
2022/11/29 12:25:45;;;;;;;11.32;6.85;;;;;;;;;;6226077;22;20016;-88
2022/11/29 12:28:13;;;;;;;10.75;6.20;;;;;;;;;;6224334;22;20015;-89
2022/11/29 12:30:42;;;;;;;10.27;6.10;;;;;;;;;;6249906;22;20456;-88
2022/11/29 12:33:17;;;;;;;9.05;6.60;;;;;;;;;;6224444;22;20025;-88
2022/11/29 12:36:20;;;;;;;7.65;5.57;;;9.60;99.90;;;;;;6249783;22;20026;-88
2022/11/29 12:38:46;;;;;;;10.35;6.68;;;;;;;;;;6099606;23;20020;-88
2022/11/29 12:41:12;;;;;;;6.15;5.38;;;;;;;;;;6075449;23;20466;-88
2022/11/29 12:43:41;;;;;;;9.10;6.25;;;;;;;;;;6076515;23;20109;-89
2022/11/29 12:46:10;;;;;;;10.05;5.50;;;;;;;;;;6099652;23;20045;-88
2022/11/29 12:48:48;;;;;;;4.03;3.72;;;;;;;;;;6099663;23;20025;-88
2022/11/29 12:51:20;;;;;;;5.40;3.85;;;;;;;;;;6076316;23;20467;-88
2022/11/29 12:53:58;;;;;;;6.20;4.38;;;;;;;;;;6076594;23;20021;-89
2022/11/29 12:56:44;;;;;;;5.80;5.15;;;;;;;;;;6099538;23;20018;-88
2022/11/29 12:59:32;;;;;;;5.53;4.63;;;;;;;;;;6096611;23;20014;-88
2022/11/29 13:02:35;;;;;;;6.93;5.15;;;9.50;99.90;;;;;;6099621;23;20487;-88
2022/11/29 13:05:04;;;;;;;6.07;5.05;;;;;;;;;;6075462;23;20022;-88
2022/11/29 13:07:36;;;;;;;6.75;5.55;;;;;;;;;;6075485;23;20029;-89
2022/11/29 13:10:09;;;;;;;7.40;6.22;;;;;;;;;;6075756;23;20096;-88
2022/11/29 13:12:42;;;;;;;8.60;7.45;;;;;;;;;;6075493;23;20018;-89
2022/11/29 13:15:08;;;;;;;8.52;7.13;;;;;;;;;;6203363;22;20472;-88
2022/11/29 13:17:34;;;;;;;11.63;7.80;;;;;;;;;;6224297;22;20019;-88
2022/11/29 13:20:03;;;;;;;10.70;7.90;;;;;;;;;;6249461;22;20196;-88
2022/11/29 13:22:47;;;;;;;12.23;8.43;;;;;;;;;;6249461;22;20453;-89
2022/11/29 13:25:19;;;;;;;13.07;8.98;;;;;;;;;;6224114;22;20012;-88
2022/11/29 13:27:52;;;;;;;13.50;8.82;;;;;;;;;;6224025;22;20019;-88
2022/11/29 13:30:18;;;;;;;11.50;8.93;;;;;;;;;;6224402;22;20026;-89
2022/11/29 13:32:58;;;;;;;11.65;8.63;;;;;;;;;;6225625;22;20016;-88
2022/11/29 13:35:48;;;;;;;15.05;8.43;;;;;;;;;;6224009;22;20095;-88
2022/11/29 13:38:33;;;;;;;12.88;9.02;;;;;;;;;;6075382;23;20068;-88
2022/11/29 13:41:10;;;;;;;14.70;9.13;;;;;;;;;;6075316;23;20022;-88
2022/11/29 13:43:38;;;;;;;11.30;8.20;;;;;;;;;;6075404;23;20514;-88
2022/11/29 13:46:07;;;;;;;11.32;8.40;;;;;;;;;;6099304;23;20478;-89
2022/11/29 13:48:36;;;;;;;13.02;8.88;;;;;;;;;;6099125;23;20022;-89
2022/11/29 13:51:20;;;;;;;11.93;9.68;;;9.00;99.90;;;;;;6101345;23;20014;-89
2022/11/29 13:53:46;;;;;;;11.38;9.10;;;;;;;;;;6101267;23;20523;-89
2022/11/29 13:56:24;;;;;;;12.70;9.18;;;;;;;;;;6101480;23;20026;-88
2022/11/29 13:58:57;;;;;;;11.32;8.32;;;;;;;;;;6077348;23;20419;-89
2022/11/29 14:01:25;;;;;;;10.70;7.78;;;;;;;;;;6077034;23;20018;-88
2022/11/29 14:04:05;;;;;;;11.30;8.35;;;;;;;;;;6101143;23;20072;-88
2022/11/29 14:06:31;;;;;;;10.80;8.10;;;;;;;;;;6077124;23;20018;-88
2022/11/29 14:09:21;;;;;;;9.07;8.10;;;;;;;;;;6077788;23;20022;-89
2022/11/29 14:11:50;;;;;;;7.72;6.88;;;;;;;;;;6101051;23;20515;-87
2022/11/29 14:14:16;;;;;;;14.55;8.32;;;;;;;;;;6094142;22;20443;-89
2022/11/29 14:16:42;;;;;;;9.98;8.25;;;;;;;;;;6225741;22;20039;-88
2022/11/29 14:19:08;;;;;;;13.05;7.97;;;;;;;;;;6251266;22;20019;-89
2022/11/29 14:22:04;;;;;;;8.25;7.40;;;;;;;;;;6251216;22;20011;-88
2022/11/29 14:24:30;;;;;;;15.18;8.77;;;;;;;;;;6195355;22;20050;-87
2022/11/29 14:26:57;;;;;;;8.85;7.45;;;;;;;;;;6225792;22;20016;-89
2022/11/29 14:29:52;;;;;;;9.60;8.52;;;8.80;99.90;;;;;;6250942;22;20452;-88
2022/11/29 14:32:31;;;;;;;11.57;8.85;;;;;;;;;;6225747;22;20015;-88
2022/11/29 14:35:01;;;;;;;12.32;10.05;;;;;;;;;;6226384;22;20019;-88
2022/11/29 14:37:42;;;;;;;10.27;8.82;;;;;;;;;;6225660;22;20012;-88
2022/11/29 14:40:17;;;;;;;14.55;9.68;;;;;;;;;;6251006;22;20020;-88
2022/11/29 14:42:47;;;;;;;11.93;9.48;;;;;;;;;;6227064;22;20015;-89
2022/11/29 14:45:40;;;;;;;14.93;9.70;;;;;;;;;;6250905;22;20034;-89
2022/11/29 14:48:23;;;;;;;14.85;10.40;;;;;;;;;;6244513;22;20015;-89
2022/11/29 14:51:05;;;;;;;11.18;9.15;;;;;;;;;;6225483;22;20018;-88
2022/11/29 14:53:33;;;;;;;14.00;10.32;;;;;;;;;;6225719;22;20016;-89